createdAt,value
2022-08-01T00:00:08.699Z,3.23
2022-08-01T00:02:40.500Z,2.90
2022-08-01T00:05:09.439Z,2.80
2022-08-01T00:07:37.015Z,2.60
2022-08-01T00:10:09.387Z,3.37
2022-08-01T00:12:36.239Z,2.80
2022-08-01T00:15:04.418Z,2.63
2022-08-01T00:17:31.079Z,2.80
2022-08-01T00:19:57.787Z,2.90
2022-08-01T00:22:24.624Z,2.73
2022-08-01T00:24:51.369Z,2.90
2022-08-01T00:27:18.371Z,2.80
2022-08-01T00:30:12.592Z,3.20
2022-08-01T00:32:32.690Z,3.00
2022-08-01T00:34:59.407Z,3.03
2022-08-01T00:37:26.159Z,3.10
2022-08-01T00:39:52.878Z,2.50
2022-08-01T00:42:19.595Z,2.53
2022-08-01T00:44:46.487Z,3.30
2022-08-01T00:47:13.224Z,2.50
2022-08-01T00:49:40.060Z,3.03
2022-08-01T00:52:07.754Z,2.90
2022-08-01T00:54:34.825Z,2.93
2022-08-01T00:57:01.601Z,2.80
2022-08-01T00:59:28.359Z,4.20
2022-08-01T01:02:01.714Z,4.47
2022-08-01T01:04:28.460Z,2.90
2022-08-01T01:07:17.796Z,3.57
2022-08-01T01:10:01.745Z,2.80
2022-08-01T01:12:49.957Z,2.70
2022-08-01T01:15:27.547Z,3.00
2022-08-01T01:18:04.697Z,2.73
2022-08-01T01:20:39.886Z,2.93
2022-08-01T01:23:21.684Z,3.20
2022-08-01T01:26:22.302Z,2.50
2022-08-01T01:29:20.590Z,2.57
2022-08-01T01:31:57.034Z,2.70
2022-08-01T01:34:24.700Z,2.50
2022-08-01T01:36:54.911Z,3.17
2022-08-01T01:39:22.485Z,3.03
2022-08-01T01:41:49.823Z,2.83
2022-08-01T01:44:17.065Z,2.40
2022-08-01T01:46:44.470Z,2.97
2022-08-01T01:49:12.589Z,2.57
2022-08-01T01:51:42.010Z,3.13
2022-08-01T01:54:16.078Z,2.83
2022-08-01T01:56:52.451Z,2.80
2022-08-01T01:59:25.890Z,2.23
2022-08-01T02:02:08.827Z,3.00
2022-08-01T02:04:43.468Z,2.73
2022-08-01T02:07:13.323Z,3.13
2022-08-01T02:09:42.633Z,3.00
2022-08-01T02:12:12.572Z,3.10
2022-08-01T02:14:43.206Z,3.20
2022-08-01T02:17:13.160Z,3.00
2022-08-01T02:19:40.079Z,3.60
2022-08-01T02:22:21.081Z,3.10
2022-08-01T02:24:53.118Z,3.00
2022-08-01T02:27:26.666Z,2.80
2022-08-01T02:30:02.285Z,3.60
2022-08-01T02:32:40.954Z,3.83
2022-08-01T02:35:12.468Z,3.50
2022-08-01T02:37:44.371Z,3.17
2022-08-01T02:40:14.665Z,2.57
2022-08-01T02:42:46.276Z,2.90
2022-08-01T02:45:14.550Z,2.87
2022-08-01T02:47:43.323Z,2.87
2022-08-01T02:50:13.348Z,3.30
2022-08-01T02:52:42.733Z,2.80
2022-08-01T02:55:11.316Z,2.63
2022-08-01T02:57:52.539Z,3.10
2022-08-01T03:00:25.097Z,2.57
2022-08-01T03:02:55.955Z,2.90
2022-08-01T03:05:24.937Z,2.63
2022-08-01T03:07:53.977Z,2.77
2022-08-01T03:10:22.051Z,2.60
2022-08-01T03:12:51.704Z,2.77
2022-08-01T03:15:19.769Z,2.13
2022-08-01T03:17:47.772Z,2.40
2022-08-01T03:20:17.487Z,3.67
2022-08-01T03:22:46.043Z,2.20
2022-08-01T03:25:15.158Z,2.50
2022-08-01T03:27:44.305Z,2.60
2022-08-01T03:30:12.190Z,2.20
2022-08-01T03:32:39.831Z,2.60
2022-08-01T03:35:07.131Z,2.40
2022-08-01T03:38:13.186Z,2.40
2022-08-01T03:40:37.020Z,2.03
2022-08-01T03:43:08.220Z,2.33
2022-08-01T03:45:41.413Z,2.37
2022-08-01T03:48:14.239Z,2.23
2022-08-01T03:50:43.878Z,2.07
2022-08-01T03:53:11.837Z,2.40
2022-08-01T03:55:42.076Z,2.40
2022-08-01T03:58:10.711Z,1.93
2022-08-01T04:00:40.972Z,3.13
2022-08-01T04:03:11.830Z,2.37
2022-08-01T04:05:41.277Z,2.30
2022-08-01T04:08:08.040Z,2.17
2022-08-01T04:10:35.008Z,2.80
2022-08-01T04:13:01.847Z,3.00
2022-08-01T04:15:28.628Z,2.40
2022-08-01T04:17:55.546Z,2.13
2022-08-01T04:20:22.576Z,1.93
2022-08-01T04:22:49.466Z,2.70
2022-08-01T04:25:26.001Z,2.33
2022-08-01T04:27:55.275Z,2.00
2022-08-01T04:30:28.024Z,1.90
2022-08-01T04:32:58.433Z,2.50
2022-08-01T04:36:03.006Z,2.27
2022-08-01T04:38:18.126Z,2.27
2022-08-01T04:40:47.159Z,2.30
2022-08-01T04:43:15.036Z,2.80
2022-08-01T04:45:44.551Z,2.67
2022-08-01T04:48:11.998Z,2.50
2022-08-01T04:50:38.738Z,2.30
2022-08-01T04:53:06.090Z,2.00
2022-08-01T04:55:32.890Z,2.47
2022-08-01T04:57:59.585Z,2.50
2022-08-01T05:00:27.063Z,2.50
2022-08-01T05:02:53.742Z,4.40
2022-08-01T05:05:21.946Z,2.50
2022-08-01T05:07:48.646Z,3.10
2022-08-01T05:10:15.423Z,2.30
2022-08-01T05:12:42.137Z,3.13
2022-08-01T05:15:14.949Z,3.30
2022-08-01T05:17:45.628Z,2.50
2022-08-01T05:20:12.906Z,3.50
2022-08-01T05:22:39.880Z,2.97
2022-08-01T05:25:07.234Z,3.00
2022-08-01T05:27:38.730Z,2.70
2022-08-01T05:30:07.238Z,2.40
2022-08-01T05:32:33.923Z,2.40
2022-08-01T05:35:00.916Z,2.90
2022-08-01T05:37:27.618Z,2.17
2022-08-01T05:39:54.333Z,2.20
2022-08-01T05:42:21.226Z,2.23
2022-08-01T05:44:48.560Z,2.33
2022-08-01T05:47:15.254Z,2.20
2022-08-01T05:49:41.956Z,2.60
2022-08-01T05:52:09.344Z,2.10
2022-08-01T05:54:36.646Z,2.40
2022-08-01T05:57:03.707Z,2.40
2022-08-01T05:59:30.918Z,2.27
2022-08-01T06:01:58.098Z,2.00
2022-08-01T06:04:25.049Z,1.77
2022-08-01T06:06:51.767Z,2.00
2022-08-01T06:09:18.571Z,2.20
2022-08-01T06:11:45.326Z,2.20
2022-08-01T06:14:12.111Z,1.97
2022-08-01T06:16:38.828Z,1.97
2022-08-01T06:19:05.547Z,2.10
2022-08-01T06:21:32.227Z,1.73
2022-08-01T06:23:58.953Z,1.87
2022-08-01T06:26:25.669Z,2.07
2022-08-01T06:28:52.392Z,2.10
2022-08-01T06:31:19.185Z,1.70
2022-08-01T06:33:45.954Z,1.90
2022-08-01T06:36:12.770Z,1.90
2022-08-01T06:38:39.529Z,1.90
2022-08-01T06:41:06.238Z,1.80
2022-08-01T06:43:32.969Z,1.80
2022-08-01T06:45:59.739Z,1.93
2022-08-01T06:48:27.462Z,2.00
2022-08-01T06:51:08.894Z,1.80
2022-08-01T06:53:39.376Z,1.73
2022-08-01T06:56:07.560Z,1.87
2022-08-01T06:58:35.618Z,2.10
2022-08-01T07:01:04.952Z,2.43
2022-08-01T07:03:54.441Z,2.37
2022-08-01T07:06:18.950Z,2.20
2022-08-01T07:08:45.661Z,2.37
2022-08-01T07:11:12.399Z,2.67
2022-08-01T07:13:43.993Z,2.27
2022-08-01T07:16:13.498Z,1.90
2022-08-01T07:18:40.433Z,2.00
2022-08-01T07:21:07.447Z,2.13
2022-08-01T07:23:55.742Z,2.00
2022-08-01T07:26:22.646Z,1.80
2022-08-01T07:28:49.371Z,2.07
2022-08-01T07:31:16.170Z,2.20
2022-08-01T07:33:48.516Z,2.00
2022-08-01T07:36:17.057Z,2.70
2022-08-01T07:38:44.116Z,1.80
2022-08-01T07:41:11.277Z,2.30
2022-08-01T07:43:38.293Z,2.13
2022-08-01T07:46:05.666Z,2.50
2022-08-01T07:48:32.489Z,2.00
2022-08-01T07:50:59.255Z,2.30
2022-08-01T07:53:26.670Z,1.90
2022-08-01T07:55:53.481Z,2.23
2022-08-01T07:58:20.206Z,2.33
2022-08-01T08:00:47.028Z,1.90
2022-08-01T08:03:13.729Z,2.00
2022-08-01T08:05:58.815Z,2.00
2022-08-01T08:08:27.436Z,1.97
2022-08-01T08:10:54.383Z,2.17
2022-08-01T08:13:21.217Z,2.10
2022-08-01T08:15:48.674Z,1.90
2022-08-01T08:18:15.845Z,1.70
2022-08-01T08:20:42.579Z,1.63
2022-08-01T08:23:42.008Z,1.70
2022-08-01T08:26:11.821Z,1.80
2022-08-01T08:28:38.570Z,2.00
2022-08-01T08:31:07.733Z,2.10
2022-08-01T08:33:52.649Z,1.33
2022-08-01T08:36:19.575Z,1.60
2022-08-01T08:38:46.269Z,1.37
2022-08-01T08:41:17.921Z,1.40
2022-08-01T08:43:47.530Z,1.53
2022-08-01T08:46:15.883Z,1.33
2022-08-01T08:48:43.085Z,1.50
2022-08-01T08:51:12.456Z,1.40
2022-08-01T08:53:44.891Z,1.10
2022-08-01T08:56:14.374Z,1.33
2022-08-01T08:58:46.247Z,1.73
2022-08-01T09:01:13.870Z,1.00
2022-08-01T09:03:41.970Z,1.33
2022-08-01T09:06:08.993Z,1.67
2022-08-01T09:08:36.201Z,1.40
2022-08-01T09:11:03.525Z,1.30
2022-08-01T09:13:30.802Z,1.33
2022-08-01T09:16:00.605Z,1.40
2022-08-01T09:18:41.366Z,1.10
2022-08-01T09:21:15.417Z,1.10
2022-08-01T09:23:53.371Z,1.20
2022-08-01T09:26:23.006Z,1.17
2022-08-01T09:28:51.122Z,1.17
2022-08-01T09:31:19.539Z,1.37
2022-08-01T09:33:59.586Z,1.60
2022-08-01T09:36:43.754Z,1.40
2022-08-01T09:39:16.799Z,1.50
2022-08-01T09:41:43.540Z,1.30
2022-08-01T09:44:10.264Z,1.90
2022-08-01T09:46:37.528Z,1.53
2022-08-01T09:49:07.326Z,1.20
2022-08-01T09:51:58.789Z,1.70
2022-08-01T09:54:34.512Z,1.20
2022-08-01T09:57:14.791Z,1.20
2022-08-01T09:59:57.694Z,1.20
2022-08-01T10:02:40.965Z,1.33
2022-08-01T10:05:11.005Z,1.30
2022-08-01T10:08:02.914Z,1.57
2022-08-01T10:10:34.842Z,1.83
2022-08-01T10:13:05.178Z,1.27
2022-08-01T10:15:36.956Z,1.43
2022-08-01T10:18:16.214Z,1.10
2022-08-01T10:20:53.109Z,1.27
2022-08-01T10:23:39.820Z,1.53
2022-08-01T10:26:08.498Z,1.50
2022-08-01T10:28:39.433Z,1.87
2022-08-01T10:31:13.116Z,1.87
2022-08-01T10:33:50.929Z,1.40
2022-08-01T10:36:22.661Z,1.23
2022-08-01T10:38:50.330Z,1.27
2022-08-01T10:41:19.582Z,1.00
2022-08-01T10:43:47.036Z,1.10
2022-08-01T10:46:14.338Z,0.80
2022-08-01T10:51:18.206Z,1.20
2022-08-01T10:53:54.170Z,1.40
2022-08-01T10:56:26.909Z,1.67
2022-08-01T10:59:06.849Z,1.20
2022-08-01T11:01:43.427Z,1.30
2022-08-01T11:04:17.408Z,1.30
2022-08-01T11:07:03.205Z,1.43
2022-08-01T11:09:39.909Z,1.23
2022-08-01T11:12:13.320Z,0.90
2022-08-01T11:15:08.423Z,1.67
2022-08-01T11:17:43.124Z,1.37
2022-08-01T11:20:14.243Z,1.20
2022-08-01T11:23:00.168Z,1.17
2022-08-01T11:26:03.937Z,1.03
2022-08-01T11:28:36.453Z,1.10
2022-08-01T11:31:11.607Z,1.57
2022-08-01T11:33:45.447Z,1.10
2022-08-01T11:36:55.410Z,1.00
2022-08-01T11:39:13.456Z,1.17
2022-08-01T11:41:41.265Z,1.10
2022-08-01T11:44:26.247Z,0.90
2022-08-01T11:47:08.761Z,1.17
2022-08-01T11:49:41.949Z,1.20
2022-08-01T11:52:16.100Z,1.10
2022-08-01T11:54:49.655Z,1.20
2022-08-01T11:57:34.672Z,1.13
2022-08-01T12:00:15.535Z,1.03
2022-08-01T12:02:46.299Z,1.03
2022-08-01T12:05:16.018Z,1.10
2022-08-01T12:07:45.043Z,1.00
2022-08-01T12:10:17.513Z,0.80
2022-08-01T12:12:52.804Z,1.00
2022-08-01T12:15:21.491Z,1.00
2022-08-01T12:17:59.050Z,1.10
2022-08-01T12:20:32.049Z,0.90
2022-08-01T12:23:04.075Z,1.30
2022-08-01T12:25:30.846Z,1.20
2022-08-01T12:28:04.865Z,1.00
2022-08-01T12:30:36.079Z,1.27
2022-08-01T12:33:05.877Z,1.10
2022-08-01T12:35:33.362Z,1.13
2022-08-01T12:38:03.428Z,1.17
2022-08-01T12:40:33.221Z,1.40
2022-08-01T12:43:03.336Z,1.30
2022-08-01T12:45:33.894Z,1.33
2022-08-01T12:48:01.796Z,1.30
2022-08-01T12:50:32.168Z,1.60
2022-08-01T12:53:00.749Z,1.33
2022-08-01T12:55:34.359Z,1.60
2022-08-01T12:58:15.489Z,1.40
2022-08-01T13:00:45.496Z,1.60
2022-08-01T13:03:17.098Z,1.73
2022-08-01T13:05:49.976Z,1.63
2022-08-01T13:08:19.005Z,2.00
2022-08-01T13:10:46.208Z,1.50
2022-08-01T13:13:22.237Z,2.00
2022-08-01T13:16:05.534Z,2.10
2022-08-01T13:18:33.960Z,1.60
2022-08-01T13:21:23.185Z,1.80
2022-08-01T13:24:04.785Z,1.67
2022-08-01T13:26:54.324Z,1.40
2022-08-01T13:29:24.067Z,1.57
2022-08-01T13:31:50.926Z,1.60
2022-08-01T13:34:17.963Z,1.20
2022-08-01T13:36:49.358Z,1.47
2022-08-01T13:39:55.122Z,1.70
2022-08-01T13:42:21.779Z,1.30
2022-08-01T13:44:48.455Z,1.10
2022-08-01T13:47:16.298Z,1.40
2022-08-01T13:49:44.170Z,1.50
2022-08-01T13:52:11.083Z,1.47
2022-08-01T13:54:37.869Z,1.47
2022-08-01T13:57:04.650Z,1.50
2022-08-01T13:59:31.482Z,1.20
2022-08-01T14:01:58.223Z,1.57
2022-08-01T14:04:25.011Z,1.77
2022-08-01T14:06:51.719Z,1.67
2022-08-01T14:09:24.141Z,1.20
2022-08-01T14:11:51.723Z,1.20
2022-08-01T14:14:18.444Z,1.60
2022-08-01T14:16:45.976Z,1.30
2022-08-01T14:19:13.143Z,1.30
2022-08-01T14:21:39.884Z,1.70
2022-08-01T14:24:07.660Z,1.50
2022-08-01T14:26:34.567Z,1.50
2022-08-01T14:29:03.171Z,1.30
2022-08-01T14:31:34.069Z,1.53
2022-08-01T14:34:01.513Z,1.30
2022-08-01T14:36:31.267Z,1.33
2022-08-01T14:39:00.559Z,1.53
2022-08-01T14:41:28.227Z,1.30
2022-08-01T14:43:55.147Z,1.50
2022-08-01T14:46:21.877Z,1.30
2022-08-01T14:48:48.777Z,1.60
2022-08-01T14:51:15.640Z,1.40
2022-08-01T14:53:46.917Z,1.10
2022-08-01T14:56:18.346Z,1.30
2022-08-01T14:58:45.385Z,1.13
2022-08-01T15:01:12.314Z,1.00
2022-08-01T15:03:39.110Z,1.10
2022-08-01T15:06:07.346Z,1.10
2022-08-01T15:08:34.082Z,1.10
2022-08-01T15:11:02.114Z,1.30
2022-08-01T15:13:28.987Z,1.30
2022-08-01T15:15:59.836Z,1.10
2022-08-01T15:18:28.649Z,1.30
2022-08-01T15:20:55.902Z,1.47
2022-08-01T15:23:22.597Z,1.30
2022-08-01T15:25:49.812Z,1.20
2022-08-01T15:28:16.547Z,1.10
2022-08-01T15:30:43.336Z,1.30
2022-08-01T15:33:10.034Z,1.20
2022-08-01T15:35:36.761Z,1.20
2022-08-01T15:38:03.763Z,1.30
2022-08-01T15:40:34.039Z,1.40
2022-08-01T15:43:00.904Z,1.10
2022-08-01T15:48:14.484Z,1.10
2022-08-01T15:50:41.185Z,1.27
2022-08-01T15:53:08.114Z,1.10
2022-08-01T15:55:39.779Z,1.13
2022-08-01T15:58:07.598Z,1.80
2022-08-01T16:00:39.568Z,1.80
2022-08-01T16:03:10.418Z,1.63
2022-08-01T16:05:43.946Z,1.50
2022-08-01T16:08:14.312Z,1.30
2022-08-01T16:10:41.511Z,1.73
2022-08-01T16:13:08.491Z,1.37
2022-08-01T16:15:37.651Z,1.60
2022-08-01T16:18:09.320Z,1.20
2022-08-01T16:20:40.238Z,1.10
2022-08-01T16:23:11.189Z,1.50
2022-08-01T16:25:38.143Z,1.90
2022-08-01T16:28:05.098Z,3.23
2022-08-01T16:30:31.965Z,2.57
2022-08-01T16:32:59.893Z,2.50
2022-08-01T16:35:36.358Z,7.80
2022-08-01T16:38:04.796Z,2.60
2022-08-01T16:40:46.326Z,2.83
2022-08-01T16:43:19.447Z,1.47
2022-08-01T16:45:46.628Z,1.33
2022-08-01T16:48:15.794Z,1.50
2022-08-01T16:50:42.961Z,1.60
2022-08-01T16:53:09.677Z,1.30
2022-08-01T16:55:49.738Z,1.53
2022-08-01T16:58:27.320Z,1.40
2022-08-01T17:00:57.090Z,1.53
2022-08-01T17:03:46.899Z,1.40
2022-08-01T17:06:11.856Z,1.50
2022-08-01T17:08:46.873Z,1.73
2022-08-01T17:11:15.406Z,1.53
2022-08-01T17:13:42.717Z,1.70
2022-08-01T17:16:10.125Z,1.47
2022-08-01T17:18:36.935Z,1.20
2022-08-01T17:21:03.733Z,1.20
2022-08-01T17:23:31.810Z,1.40
2022-08-01T17:25:59.537Z,1.27
2022-08-01T17:28:26.687Z,1.30
2022-08-01T17:30:53.393Z,1.57
2022-08-01T17:33:20.622Z,1.13
2022-08-01T17:35:47.390Z,1.40
2022-08-01T17:38:14.229Z,1.20
2022-08-01T17:40:41.330Z,1.40
2022-08-01T17:43:08.655Z,1.30
2022-08-01T17:45:39.325Z,1.43
2022-08-01T17:48:17.888Z,1.50
2022-08-01T17:50:46.806Z,1.43
2022-08-01T17:53:14.980Z,1.40
2022-08-01T17:55:55.735Z,1.33
2022-08-01T17:58:49.739Z,1.50
2022-08-01T18:01:11.362Z,1.40
2022-08-01T18:03:41.229Z,1.40
2022-08-01T18:06:09.225Z,1.70
2022-08-01T18:08:36.366Z,1.80
2022-08-01T18:11:03.295Z,1.63
2022-08-01T18:13:30.140Z,1.87
2022-08-01T18:15:57.630Z,1.77
2022-08-01T18:18:33.338Z,1.40
2022-08-01T18:21:01.834Z,1.53
2022-08-01T18:23:28.803Z,1.83
2022-08-01T18:25:55.589Z,2.03
2022-08-01T18:28:32.890Z,2.10
2022-08-01T18:31:03.547Z,1.80
2022-08-01T18:33:30.375Z,2.50
2022-08-01T18:36:01.919Z,2.17
2022-08-01T18:38:32.338Z,2.20
2022-08-01T18:41:01.012Z,2.23
2022-08-01T18:43:28.105Z,2.30
2022-08-01T18:45:57.181Z,2.27
2022-08-01T18:48:24.441Z,2.20
2022-08-01T18:50:51.450Z,2.13
2022-08-01T18:53:18.885Z,2.20
2022-08-01T18:55:45.723Z,2.20
2022-08-01T18:58:12.579Z,2.30
2022-08-01T19:00:40.015Z,2.30
2022-08-01T19:03:07.750Z,2.30
2022-08-01T19:05:36.099Z,2.00
2022-08-01T19:08:06.383Z,2.07
2022-08-01T19:10:40.494Z,2.23
2022-08-01T19:13:08.126Z,2.00
2022-08-01T19:15:35.492Z,1.80
2022-08-01T19:18:03.183Z,2.30
2022-08-01T19:20:30.503Z,2.10
2022-08-01T19:22:57.601Z,2.33
2022-08-01T19:25:24.451Z,2.20
2022-08-01T19:27:51.352Z,2.40
2022-08-01T19:30:19.521Z,2.20
2022-08-01T19:32:47.530Z,2.70
2022-08-01T19:35:16.914Z,2.47
2022-08-01T19:37:47.071Z,2.60
2022-08-01T19:40:26.698Z,2.23
2022-08-01T19:42:55.431Z,2.67
2022-08-01T19:45:22.653Z,2.20
2022-08-01T19:47:56.281Z,2.37
2022-08-01T19:50:28.198Z,2.13
2022-08-01T19:52:57.643Z,2.33
2022-08-01T19:55:25.285Z,2.87
2022-08-01T20:00:41.257Z,2.77
2022-08-01T20:03:09.535Z,2.20
2022-08-01T20:05:37.364Z,2.70
2022-08-01T20:08:06.561Z,2.30
2022-08-01T20:10:34.241Z,3.87
2022-08-01T20:13:02.277Z,2.60
2022-08-01T20:15:29.988Z,2.67
2022-08-01T20:18:00.652Z,2.80
2022-08-01T20:20:28.082Z,2.90
2022-08-01T20:22:57.243Z,2.90
2022-08-01T20:25:32.095Z,2.73
2022-08-01T20:28:09.925Z,2.30
2022-08-01T20:30:37.827Z,2.80
2022-08-01T20:33:06.824Z,2.40
2022-08-01T20:35:52.030Z,2.53
2022-08-01T20:38:23.087Z,2.57
2022-08-01T20:40:53.140Z,2.70
2022-08-01T20:43:21.697Z,2.33
2022-08-01T20:45:50.341Z,2.57
2022-08-01T20:48:17.907Z,3.20
2022-08-01T20:51:04.901Z,2.90
2022-08-01T20:53:40.686Z,2.90
2022-08-01T20:56:26.359Z,2.80
2022-08-01T20:59:08.360Z,2.63
2022-08-01T21:01:44.207Z,3.10
2022-08-01T21:04:13.680Z,2.67
2022-08-01T21:06:51.690Z,2.80
2022-08-01T21:09:22.674Z,3.33
2022-08-01T21:11:54.583Z,3.03
2022-08-01T21:14:23.032Z,2.57
2022-08-01T21:16:59.904Z,3.50
2022-08-01T21:19:28.030Z,3.00
2022-08-01T21:22:19.388Z,2.93
2022-08-01T21:24:59.562Z,3.20
2022-08-01T21:27:32.843Z,3.10
2022-08-01T21:30:02.476Z,3.33
2022-08-01T21:32:33.068Z,3.07
2022-08-01T21:35:01.780Z,3.70
2022-08-01T21:37:30.373Z,3.37
2022-08-01T21:39:59.420Z,3.20
2022-08-01T21:42:28.603Z,3.20
2022-08-01T21:45:01.862Z,3.30
2022-08-01T21:47:30.028Z,3.00
2022-08-01T21:50:02.287Z,3.13
2022-08-01T21:52:41.830Z,3.50
2022-08-01T21:55:35.633Z,3.07
2022-08-01T21:58:32.045Z,3.10
2022-08-01T22:01:22.535Z,3.37
2022-08-01T22:03:53.259Z,3.40
2022-08-01T22:06:22.536Z,3.77
2022-08-01T22:08:53.989Z,3.20
2022-08-01T22:11:25.103Z,3.30
2022-08-01T22:13:59.993Z,2.93
2022-08-01T22:16:27.302Z,3.30
2022-08-01T22:18:54.520Z,2.97
2022-08-01T22:21:21.625Z,3.47
2022-08-01T22:23:52.087Z,3.10
2022-08-01T22:26:27.094Z,2.80
2022-08-01T22:28:56.432Z,3.37
2022-08-01T22:31:23.697Z,2.80
2022-08-01T22:33:51.236Z,3.33
2022-08-01T22:36:19.594Z,3.10
2022-08-01T22:38:46.429Z,3.33
2022-08-01T22:41:17.879Z,3.23
2022-08-01T22:44:08.509Z,3.37
2022-08-01T22:47:00.479Z,3.60
2022-08-01T22:49:48.255Z,4.00
2022-08-01T22:52:19.811Z,3.10
2022-08-01T22:54:51.326Z,4.00
2022-08-01T22:57:29.803Z,3.63
2022-08-01T23:00:04.883Z,3.30
2022-08-01T23:02:36.350Z,3.30
2022-08-01T23:05:08.044Z,3.37
2022-08-01T23:07:39.921Z,3.83
2022-08-01T23:10:07.934Z,4.13
2022-08-01T23:12:34.917Z,3.00
2022-08-01T23:15:02.039Z,3.70
2022-08-01T23:17:31.368Z,3.30
2022-08-01T23:20:01.569Z,2.93
2022-08-01T23:22:34.268Z,3.00
2022-08-01T23:25:07.081Z,3.00
2022-08-01T23:27:54.284Z,3.60
2022-08-01T23:30:29.960Z,3.40
2022-08-01T23:32:57.541Z,3.30
2022-08-01T23:35:25.419Z,3.53
2022-08-01T23:37:52.895Z,3.23
2022-08-01T23:40:20.262Z,3.60
2022-08-01T23:42:47.122Z,3.53
2022-08-01T23:45:14.040Z,3.90
2022-08-01T23:47:40.767Z,3.50
2022-08-01T23:50:08.195Z,4.03
2022-08-01T23:52:39.545Z,3.13
2022-08-01T23:55:15.696Z,3.77
2022-08-01T23:57:43.174Z,3.70
